Time;durP1;ratioP1;P1;durP2;ratioP2;P2;SDS_P1;SDS_P2;PMS_P1;PMS_P2;Temp;Humidity;BMP_temperature;BMP_pressure;BME280_temperature;BME280_humidity;BME280_pressure;Samples;Min_cycle;Max_cycle;Signal;HPM_P1;HPM_P2
2023/06/23 00:00:11;;;;;;;14.75;10.20;;;;;;;26.60;62.19;98504.88;5085642;28;20224;-75
2023/06/23 00:02:39;;;;;;;15.32;11.45;;;;;;;26.73;62.24;98532.06;5085645;28;20036;-74
2023/06/23 00:05:07;;;;;;;15.00;10.15;;;;;;;26.78;61.99;98529.56;5083743;28;20040;-75
2023/06/23 00:07:34;;;;;;;11.80;10.55;;;;;;;26.81;61.96;98539.16;5085277;28;20071;-75
2023/06/23 00:10:02;;;;;;;16.77;11.20;;;;;;;26.59;61.90;98524.91;5085576;28;20281;-75
2023/06/23 00:12:28;;;;;;;15.50;10.02;;;;;;;26.69;62.19;98533.50;5084423;28;20244;-75
2023/06/23 00:14:55;;;;;;;11.68;10.48;;;;;;;26.66;62.24;98542.09;5085119;28;20036;-74
2023/06/23 00:17:23;;;;;;;14.98;11.15;;;;;;;26.69;62.32;98560.69;5085761;28;20086;-75
2023/06/23 00:19:50;;;;;;;15.30;9.70;;;;;;;26.70;62.00;98569.69;5085162;28;20045;-75
2023/06/23 00:22:17;;;;;;;12.00;10.05;;;;;;;26.70;62.44;98575.97;5084370;28;20339;-75
2023/06/23 00:24:43;;;;;;;11.95;10.48;;;;;;;26.73;62.06;98580.16;5085723;28;20044;-75
2023/06/23 00:27:10;;;;;;;14.10;11.65;;;;;;;26.74;62.28;98584.53;5085421;28;20048;-75
2023/06/23 00:29:37;;;;;;;16.20;11.13;;;;;;;26.59;62.27;98564.81;5084261;28;20040;-75
2023/06/23 00:32:04;;;;;;;15.38;11.38;;;;;;;26.75;62.07;98589.75;5085350;28;20193;-75
2023/06/23 00:34:33;;;;;;;13.85;11.00;;;;;;;26.74;62.15;98590.81;5085634;28;20062;-76
2023/06/23 00:36:59;;;;;;;15.52;10.35;;;;;;;26.75;62.13;98605.22;5085451;28;20046;-76
2023/06/23 00:39:26;;;;;;;15.23;11.23;;;;;;;26.64;61.86;98586.81;5085585;28;20252;-75
2023/06/23 00:41:53;;;;;;;12.60;9.93;;;;;;;26.73;62.09;98610.88;5085297;28;20098;-75
2023/06/23 00:44:20;;;;;;;11.48;10.30;;;;;;;26.73;62.43;98627.19;5084066;28;20289;-75
2023/06/23 00:46:47;;;;;;;14.07;11.32;;;;;;;26.74;62.07;98644.34;5084896;28;20033;-76
2023/06/23 00:49:15;;;;;;;16.95;11.80;;;;;;;26.32;62.82;98582.94;5084883;28;20044;-75
2023/06/23 00:51:44;;;;;;;17.98;11.35;;;;;;;26.17;63.01;98581.22;5084762;28;20063;-76
2023/06/23 00:54:11;;;;;;;10.65;9.65;;;;;;;26.65;62.66;98676.28;5083914;28;20060;-75
2023/06/23 00:56:37;;;;;;;12.90;11.32;;;;;;;26.54;62.34;98641.53;5083876;28;20036;-75
2023/06/23 00:59:05;;;;;;;12.88;11.57;;;;;;;26.36;62.59;98627.66;5084717;28;20051;-75
2023/06/23 01:01:32;;;;;;;12.30;11.05;;;;;;;26.69;62.25;98676.72;5088483;28;20400;-75
2023/06/23 01:04:00;;;;;;;11.90;10.63;;;;;;;26.67;62.18;98685.09;5088833;28;20293;-75
2023/06/23 01:06:37;;;;;;;14.68;10.65;;;;;;;26.66;62.32;98682.56;5088482;28;20043;-76
2023/06/23 01:09:17;;;;;;;14.57;11.25;;;;;;;26.66;62.18;98682.56;5088574;28;20059;-76
2023/06/23 01:11:51;;;;;;;16.38;12.43;;;;;;;26.68;61.25;98697.63;5088781;28;20040;-76
2023/06/23 01:14:24;;;;;;;15.40;11.82;;;;;;;26.62;60.78;98675.88;5088189;28;20056;-76
2023/06/23 01:16:57;;;;;;;13.25;11.40;;;;;;;26.56;60.37;98688.34;5088051;28;20047;-76
2023/06/23 01:19:42;;;;;;;14.73;10.88;;;;;;;26.53;59.33;98694.19;5087537;28;20048;-76
2023/06/23 01:22:19;;;;;;;20.70;10.35;;;;;;;25.85;58.81;98590.00;5088056;28;20208;-76
2023/06/23 01:25:00;;;;;;;14.48;9.10;;;;;;;26.45;57.95;98711.50;5087187;28;20307;-75
2023/06/23 01:28:01;;;;;;;13.65;10.15;;;;;;;26.32;57.33;98699.72;5087949;28;20037;-76
2023/06/23 01:30:33;;;;;;;11.75;8.23;;;;;;;26.36;57.36;98711.88;5080961;28;20119;-75
2023/06/23 01:33:08;;;;;;;13.60;8.80;;;;;;;26.18;56.38;98724.09;5088396;28;20108;-75
2023/06/23 01:35:43;;;;;;;14.73;8.90;;;;;;;26.15;56.62;98740.78;5087981;28;20048;-75
2023/06/23 01:38:14;;;;;;;12.65;7.80;;;;;;;25.86;56.14;98675.81;5086879;28;20082;-76
2023/06/23 01:40:44;;;;;;;10.60;7.75;;;;;;;25.97;54.85;98720.59;5087698;28;20350;-76
2023/06/23 01:43:15;;;;;;;11.40;7.13;;;;;;;26.14;55.05;98743.72;5087673;28;20086;-75
2023/06/23 01:45:44;;;;;;;12.15;6.60;;;;;;;26.13;54.43;98751.03;5087676;28;20086;-76
2023/06/23 01:48:13;;;;;;;10.65;6.63;;;;;;;26.04;53.57;98754.94;5087583;28;20108;-76
2023/06/23 01:50:42;;;;;;;11.32;5.72;;;;;;;26.05;53.28;98753.06;5087803;28;20050;-76
2023/06/23 01:53:10;;;;;;;16.08;6.50;;;;;;;26.04;52.85;98756.81;5086494;28;20067;-76
2023/06/23 01:55:40;;;;;;;14.13;6.70;;;;;;;26.05;53.11;98764.75;5087628;28;20103;-76
2023/06/23 01:58:08;;;;;;;11.85;6.07;;;;;;;25.75;52.44;98717.94;5087894;28;20045;-75
2023/06/23 02:00:35;;;;;;;20.77;6.22;;;;;;;26.00;51.70;98774.53;5087342;28;20112;-75
2023/06/23 02:03:06;;;;;;;10.90;5.75;;;;;;;25.90;50.88;98772.97;5087262;28;20036;-76
2023/06/23 02:05:37;;;;;;;15.38;4.40;;;;;;;25.88;51.03;98756.03;5087467;28;20041;-76
2023/06/23 02:08:06;;;;;;;18.52;6.22;;;;;;;25.88;50.17;98774.19;5087359;28;20048;-75
2023/06/23 02:10:33;;;;;;;12.18;5.15;;;;;;;25.80;49.87;98769.75;5087607;28;20311;-75
2023/06/23 02:13:01;;;;;;;13.48;5.60;;;;;;;25.70;49.74;98766.53;5087073;28;20047;-76
2023/06/23 02:15:30;;;;;;;15.63;5.65;;;;;;;25.71;49.66;98781.78;5086219;28;20131;-75
2023/06/23 02:17:57;;;;;;;9.32;4.80;;;;;;;25.56;49.78;98757.44;5087200;28;20306;-75
2023/06/23 02:20:29;;;;;;;9.95;4.75;;;;;;;25.55;50.06;98782.03;5087462;28;20181;-75
2023/06/23 02:22:57;;;;;;;12.80;4.82;;;;;;;25.48;49.70;98765.69;5087165;28;20191;-76
2023/06/23 02:25:26;;;;;;;11.75;5.22;;;;;;;25.54;50.17;98783.06;5086795;28;20041;-76
2023/06/23 02:27:54;;;;;;;11.20;4.72;;;;;;;25.50;50.36;98792.63;5087351;28;20032;-75
2023/06/23 02:30:21;;;;;;;16.38;5.72;;;;;;;25.54;50.31;98793.94;5086888;28;20040;-75
2023/06/23 02:32:48;;;;;;;13.43;6.00;;;;;;;25.29;50.54;98766.31;5086680;28;20051;-75
2023/06/23 02:35:15;;;;;;;12.68;5.30;;;;;;;25.56;50.63;98800.84;5086866;28;20235;-75
2023/06/23 02:37:50;;;;;;;11.75;4.50;;;;;;;25.55;50.82;98809.16;5086523;28;20062;-75
2023/06/23 02:40:20;;;;;;;10.27;5.43;;;;;;;25.54;51.09;98815.63;5087073;28;20040;-75
2023/06/23 02:42:52;;;;;;;11.73;5.63;;;;;;;25.53;51.17;98813.94;5086724;28;20036;-76
2023/06/23 02:45:24;;;;;;;10.48;4.40;;;;;;;25.49;51.54;98813.50;5086577;28;20103;-75
2023/06/23 02:47:55;;;;;;;9.73;5.40;;;;;;;25.44;51.49;98812.41;5085827;28;20032;-76
2023/06/23 02:50:28;;;;;;;8.98;4.70;;;;;;;25.31;51.71;98812.22;5086821;28;20054;-75
2023/06/23 02:53:01;;;;;;;11.43;5.15;;;;;;;25.39;51.99;98823.81;5086106;28;20190;-75
2023/06/23 02:55:30;;;;;;;12.18;4.55;;;;;;;25.30;52.20;98818.69;5086244;28;20045;-75
2023/06/23 02:58:00;;;;;;;11.07;4.78;;;;;;;25.20;51.39;98792.72;5086218;28;20055;-76
2023/06/23 03:00:29;;;;;;;7.55;4.95;;;;;;;25.28;51.78;98817.00;5085299;28;20036;-75
2023/06/23 03:02:59;;;;;;;11.02;4.75;;;;;;;25.22;51.28;98815.06;5086651;28;20036;-75
2023/06/23 03:05:26;;;;;;;7.60;3.78;;;;;;;24.60;51.46;98703.53;5086049;28;20044;-76
2023/06/23 03:07:53;;;;;;;8.65;4.75;;;;;;;25.09;51.45;98809.47;5085983;28;20032;-75
2023/06/23 03:10:21;;;;;;;11.48;4.55;;;;;;;24.90;51.47;98756.69;5085041;28;20036;-75
2023/06/23 03:12:49;;;;;;;9.88;4.18;;;;;;;25.01;51.32;98787.91;5085098;28;20350;-75
2023/06/23 03:15:16;;;;;;;8.90;4.00;;;;;;;25.09;51.35;98805.94;5086134;28;20280;-75
2023/06/23 03:17:45;;;;;;;10.05;4.80;;;;;;;25.09;51.21;98817.59;5084924;28;20033;-75
2023/06/23 03:20:19;;;;;;;10.10;3.88;;;;;;;25.10;51.16;98815.75;5084949;28;20052;-75
2023/06/23 03:22:51;;;;;;;10.32;4.00;;;;;;;25.01;50.94;98806.03;5085655;28;20051;-75
2023/06/23 03:25:25;;;;;;;11.18;4.63;;;;;;;24.88;51.13;98829.19;5086243;28;20058;-75
2023/06/23 03:27:56;;;;;;;7.28;3.88;;;;;;;24.79;51.32;98838.47;5086185;28;20059;-75
2023/06/23 03:30:26;;;;;;;10.68;3.95;;;;;;;24.86;51.32;98850.22;5085903;28;20326;-75
2023/06/23 03:32:58;;;;;;;8.55;4.15;;;;;;;24.92;51.21;98843.22;5085660;28;20040;-75
2023/06/23 03:35:29;;;;;;;9.35;4.70;;;;;;;24.84;50.93;98855.00;5084772;28;20046;-75
2023/06/23 03:38:00;;;;;;;9.65;4.18;;;;;;;24.56;50.81;98822.28;5085849;28;20045;-75
2023/06/23 03:40:32;;;;;;;10.38;4.22;;;;;;;24.61;51.17;98824.41;5084697;28;20071;-75
2023/06/23 03:43:06;;;;;;;9.77;3.90;;;;;;;24.83;51.36;98875.00;5085852;28;20044;-75
2023/06/23 03:45:35;;;;;;;9.35;3.85;;;;;;;24.82;51.52;98880.59;5084969;28;20054;-75
2023/06/23 03:48:05;;;;;;;9.20;4.43;;;;;;;24.55;51.20;98850.38;5085784;28;20033;-75
2023/06/23 03:50:35;;;;;;;10.50;3.63;;;;;;;24.66;51.25;98853.69;5085771;28;20300;-75
2023/06/23 03:53:04;;;;;;;7.90;4.15;;;;;;;24.70;51.11;98884.81;5085362;28;20316;-75
2023/06/23 03:55:35;;;;;;;10.25;3.90;;;;;;;24.59;51.79;98878.78;5085422;28;20111;-75
2023/06/23 03:58:06;;;;;;;10.88;3.95;;;;;;;24.46;51.58;98839.81;5085305;28;20112;-75
2023/06/23 04:00:36;;;;;;;16.33;3.90;;;;;;;24.66;51.56;98878.06;5085451;28;20305;-74
2023/06/23 04:03:07;;;;;;;5.38;3.60;;;;;;;24.02;51.54;98802.69;5085327;28;20045;-74
2023/06/23 04:05:37;;;;;;;8.02;3.97;;;;;;;24.64;51.85;98876.38;5085364;28;20056;-75
2023/06/23 04:08:06;;;;;;;10.20;4.03;;;;;;;24.63;51.59;98879.25;5084471;28;20208;-74
2023/06/23 04:10:36;;;;;;;7.18;3.47;;;;;;;24.53;51.81;98866.00;5084443;28;20044;-75
2023/06/23 04:13:04;;;;;;;7.75;3.40;;;;;;;24.52;51.97;98885.97;5085808;28;20047;-75
2023/06/23 04:15:32;;;;;;;7.20;3.90;;;;;;;24.37;51.65;98859.91;5085801;28;20044;-75
2023/06/23 04:18:02;;;;;;;7.65;3.67;;;;;;;24.55;51.44;98873.94;5085135;28;20036;-75
2023/06/23 04:20:32;;;;;;;7.68;3.75;;;;;;;24.44;51.67;98871.66;5084316;28;20312;-75
2023/06/23 04:23:00;;;;;;;7.65;3.42;;;;;;;24.38;52.17;98881.38;5085471;28;20050;-74
2023/06/23 04:25:27;;;;;;;9.25;3.50;;;;;;;24.32;52.28;98882.13;5085118;28;20205;-75
2023/06/23 04:28:00;;;;;;;8.27;3.70;;;;;;;24.15;52.24;98829.13;5084642;28;20197;-75
2023/06/23 04:30:29;;;;;;;8.93;3.90;;;;;;;24.43;52.25;98872.69;5085395;28;20051;-75
2023/06/23 04:32:56;;;;;;;7.88;3.45;;;;;;;23.81;52.42;98799.81;5085373;28;20394;-74
2023/06/23 04:35:23;;;;;;;7.30;4.10;;;;;;;24.38;52.44;98873.25;5086377;28;20116;-75
2023/06/23 04:37:58;;;;;;;8.05;3.67;;;;;;;24.38;52.59;98884.09;5089051;28;20103;-74
2023/06/23 04:40:30;;;;;;;8.05;3.10;;;;;;;24.30;52.74;98889.56;5087973;28;20032;-75
2023/06/23 04:43:09;;;;;;;9.70;4.28;;;;;;;24.21;52.90;98893.38;5088763;28;20127;-75
2023/06/23 04:45:41;;;;;;;11.43;4.25;;;;;;;24.22;52.50;98881.53;5089291;28;20051;-75
2023/06/23 04:48:12;;;;;;;8.25;3.63;;;;;;;24.04;52.88;98883.72;5087864;28;20047;-75
2023/06/23 04:50:41;;;;;;;8.15;3.17;;;;;;;24.15;52.72;98891.41;5087809;28;20111;-74
2023/06/23 04:53:14;;;;;;;6.15;3.42;;;;;;;24.07;52.85;98880.66;5088429;28;20076;-74
2023/06/23 04:55:44;;;;;;;5.20;2.88;;;;;;;24.09;52.72;98890.28;5088807;28;20040;-75
2023/06/23 04:58:14;;;;;;;8.18;4.10;;;;;;;24.09;52.79;98895.69;5088251;28;20212;-75
2023/06/23 05:00:44;;;;;;;7.43;3.70;;;;;;;24.10;53.02;98883.00;5087830;28;20177;-74
2023/06/23 05:03:12;;;;;;;7.25;3.80;;;;;;;24.12;52.86;98891.78;5088628;28;20090;-74
2023/06/23 05:05:42;;;;;;;10.50;3.72;;;;;;;23.99;53.04;98866.16;5088359;28;20046;-74
2023/06/23 05:08:11;;;;;;;8.35;3.50;;;;;;;24.15;52.90;98892.25;5088289;28;20111;-75
2023/06/23 05:10:40;;;;;;;7.80;3.95;;;;;;;24.14;53.17;98895.13;5070990;28;20366;-74
2023/06/23 05:13:09;;;;;;;8.88;3.65;;;;;;;24.04;53.18;98891.84;5088215;28;20115;-74
2023/06/23 05:15:37;;;;;;;9.23;4.05;;;;;;;24.05;53.07;98883.53;5088148;28;20046;-74
2023/06/23 05:18:07;;;;;;;9.82;4.20;;;;;;;24.12;53.51;98894.47;5087183;28;20045;-74
2023/06/23 05:20:38;;;;;;;5.75;3.70;;;;;;;24.08;53.34;98891.28;5088130;28;20358;-74
2023/06/23 05:23:06;;;;;;;8.77;3.50;;;;;;;23.73;53.46;98843.19;5087112;28;20190;-74
2023/06/23 05:25:34;;;;;;;8.35;3.95;;;;;;;23.98;53.61;98896.97;5087132;28;20270;-74
2023/06/23 05:28:03;;;;;;;8.27;3.83;;;;;;;23.93;54.02;98895.78;5088722;28;20043;-74
2023/06/23 05:30:32;;;;;;;8.45;3.88;;;;;;;23.91;54.04;98901.38;5088438;28;20051;-74
2023/06/23 05:33:02;;;;;;;7.60;3.80;;;;;;;23.95;54.07;98886.47;5086938;28;20043;-74
2023/06/23 05:35:32;;;;;;;8.07;3.75;;;;;;;23.90;54.25;98905.09;5086858;28;20040;-74
2023/06/23 05:38:02;;;;;;;5.80;3.55;;;;;;;23.88;54.51;98901.72;5087716;28;20207;-74
2023/06/23 05:40:29;;;;;;;8.73;3.95;;;;;;;23.92;54.16;98905.75;5087897;28;20212;-75
2023/06/23 05:42:56;;;;;;;10.20;3.30;;;;;;;23.84;54.05;98924.78;5088223;28;20273;-75
2023/06/23 05:45:23;;;;;;;8.20;3.75;;;;;;;23.83;54.28;98925.78;5087431;28;20322;-74
2023/06/23 05:47:59;;;;;;;13.85;4.55;;;;;;;23.77;54.50;98931.91;5087562;28;20074;-74
2023/06/23 05:50:32;;;;;;;11.55;3.75;;;;;;;23.79;54.26;98923.63;5087210;28;20188;-74
2023/06/23 05:53:02;;;;;;;8.32;3.65;;;;;;;23.79;54.27;98907.38;5087421;28;20212;-74
2023/06/23 05:55:30;;;;;;;10.80;3.17;;;;;;;23.75;54.05;98906.06;5103778;28;20059;-74
2023/06/23 05:58:02;;;;;;;5.05;3.28;;;;;;;23.75;54.29;98901.50;5087439;28;20052;-74
2023/06/23 06:00:33;;;;;;;6.25;3.90;;;;;;;23.58;54.00;98900.75;5087340;28;20036;-74
2023/06/23 06:03:04;;;;;;;8.10;4.03;;;;;;;23.67;54.23;98915.91;5087769;28;20051;-74
2023/06/23 06:05:34;;;;;;;8.60;3.85;;;;;;;23.72;54.25;98939.72;5087556;28;20204;-74
2023/06/23 06:08:02;;;;;;;10.20;3.85;;;;;;;23.74;54.28;98926.88;5086758;28;20291;-73
2023/06/23 06:10:31;;;;;;;8.07;3.88;;;;;;;23.66;54.34;98908.81;5086276;28;20082;-74
2023/06/23 06:12:59;;;;;;;7.85;3.80;;;;;;;23.66;54.66;98903.41;5087197;28;20068;-74
2023/06/23 06:15:26;;;;;;;10.73;3.88;;;;;;;23.68;54.51;98906.78;5087025;28;20051;-74
2023/06/23 06:17:55;;;;;;;9.65;4.15;;;;;;;23.54;54.81;98948.13;5087446;28;20040;-74
2023/06/23 06:20:24;;;;;;;9.20;3.65;;;;;;;23.54;54.57;98920.22;5086842;28;20258;-74
2023/06/23 06:22:56;;;;;;;5.97;3.72;;;;;;;23.64;54.63;98915.44;5085896;28;20037;-74
2023/06/23 06:25:25;;;;;;;9.82;4.07;;;;;;;23.62;54.53;98906.66;5086783;28;20083;-74
2023/06/23 06:27:54;;;;;;;7.07;3.40;;;;;;;23.72;54.52;98906.41;5085967;28;20116;-73
2023/06/23 06:30:24;;;;;;;9.73;4.07;;;;;;;23.74;54.54;98902.50;5102985;28;20036;-74
2023/06/23 06:32:53;;;;;;;6.88;3.28;;;;;;;23.67;54.74;98888.88;5087127;28;20193;-74
2023/06/23 06:35:23;;;;;;;7.63;4.13;;;;;;;23.80;54.33;98903.66;5085670;28;20036;-73
2023/06/23 06:37:54;;;;;;;8.00;3.92;;;;;;;23.65;54.36;98877.38;5086465;28;20052;-74
2023/06/23 06:40:24;;;;;;;6.78;3.97;;;;;;;23.88;54.58;98920.69;5085617;28;20037;-74
2023/06/23 06:42:51;;;;;;;6.85;3.05;;;;;;;23.84;54.43;98900.41;5085599;28;20208;-74
2023/06/23 06:45:18;;;;;;;11.02;3.80;;;;;;;23.80;54.17;98876.59;5086284;28;20036;-74
2023/06/23 06:47:46;;;;;;;5.43;3.33;;;;;;;23.96;54.19;98908.94;5085234;28;20055;-74
2023/06/23 06:50:16;;;;;;;6.97;3.03;;;;;;;23.97;54.19;98916.91;5086585;28;20036;-74
2023/06/23 06:52:45;;;;;;;5.93;2.63;;;;;;;23.97;53.94;98908.81;5085894;28;20051;-74
2023/06/23 06:55:19;;;;;;;5.22;2.85;;;;;;;23.34;52.86;98834.13;5086192;28;20111;-74
2023/06/23 06:57:46;;;;;;;10.32;3.58;;;;;;;23.85;51.67;98939.97;5084618;28;20037;-73
2023/06/23 07:00:14;;;;;;;9.35;3.10;;;;;;;23.90;51.50;98915.94;5086105;28;20074;-74
2023/06/23 07:02:42;;;;;;;6.97;2.47;;;;;;;23.88;50.70;98947.75;5086309;28;20174;-74
2023/06/23 07:05:09;;;;;;;6.97;2.95;;;;;;;23.89;50.83;98929.63;5086335;28;20040;-74
2023/06/23 07:07:37;;;;;;;5.22;2.67;;;;;;;23.94;50.28;98932.66;5085185;28;20115;-74
2023/06/23 07:10:04;;;;;;;4.75;3.35;;;;;;;23.94;50.38;98970.53;5085941;28;20040;-74
2023/06/23 07:12:33;;;;;;;5.85;2.42;;;;;;;23.88;50.42;98945.03;5086369;28;20044;-73
2023/06/23 07:15:00;;;;;;;5.57;2.75;;;;;;;24.03;50.40;98941.59;5086110;28;20102;-74
2023/06/23 07:17:27;;;;;;;5.28;2.47;;;;;;;24.08;50.54;98941.88;5086153;28;20040;-74
2023/06/23 07:19:54;;;;;;;6.82;2.63;;;;;;;24.19;50.59;98938.75;5086107;28;20040;-74
2023/06/23 07:22:21;;;;;;;7.45;2.70;;;;;;;24.24;50.06;98949.88;5086156;28;20045;-74
2023/06/23 07:24:48;;;;;;;4.40;2.47;;;;;;;24.25;50.06;98951.56;5085439;28;20055;-74
2023/06/23 07:27:16;;;;;;;3.83;2.13;;;;;;;23.64;49.74;98832.41;5084992;28;20054;-74
2023/06/23 07:29:44;;;;;;;5.03;2.60;;;;;;;24.30;49.08;98958.13;5085459;28;20044;-74
2023/06/23 07:32:11;;;;;;;5.13;2.38;;;;;;;24.39;49.23;98955.34;5086122;28;20071;-74
2023/06/23 07:34:38;;;;;;;3.67;2.20;;;;;;;24.47;48.75;98974.22;5085736;28;20067;-73
2023/06/23 07:37:08;;;;;;;3.80;2.40;;;;;;;24.65;48.61;98966.66;5084439;28;20064;-74
2023/06/23 07:39:35;;;;;;;7.50;2.03;;;;;;;24.62;48.19;98965.13;5085182;28;20209;-74
2023/06/23 07:42:02;;;;;;;5.50;2.40;;;;;;;24.58;47.91;98957.53;5085772;28;20040;-73
2023/06/23 07:44:31;;;;;;;4.28;2.03;;;;;;;24.63;47.97;98980.34;5085910;28;20048;-74
2023/06/23 07:46:59;;;;;;;5.10;2.53;;;;;;;24.78;47.76;98961.44;5085506;28;20062;-74
2023/06/23 07:49:27;;;;;;;3.78;2.42;;;;;;;24.85;47.40;98977.81;5084849;28;20046;-74
2023/06/23 07:51:54;;;;;;;7.18;2.55;;;;;;;24.82;47.59;98964.63;5085748;28;20071;-74
2023/06/23 07:54:21;;;;;;;3.80;2.30;;;;;;;25.02;47.12;98964.94;5086017;28;20117;-74
2023/06/23 07:56:48;;;;;;;5.30;2.50;;;;;;;24.78;46.69;98911.81;5084340;28;20185;-74
2023/06/23 07:59:15;;;;;;;6.78;2.50;;;;;;;24.96;47.14;98996.31;5085616;28;20032;-74
2023/06/23 08:01:42;;;;;;;6.60;2.50;;;;;;;25.09;46.75;98972.16;5085617;28;20382;-74
2023/06/23 08:04:10;;;;;;;5.28;2.58;;;;;;;24.96;46.49;98999.03;5085257;28;20338;-74
2023/06/23 08:06:37;;;;;;;4.90;2.15;;;;;;;25.02;47.01;98986.63;5085743;28;20051;-74
2023/06/23 08:09:04;;;;;;;4.45;2.20;;;;;;;25.15;46.79;98971.41;5087544;28;20044;-74
2023/06/23 08:11:32;;;;;;;4.70;2.30;;;;;;;24.55;46.63;98828.72;5088527;28;20036;-74
2023/06/23 08:14:00;;;;;;;4.63;2.60;;;;;;;25.44;46.44;98983.28;5089522;28;20040;-74
2023/06/23 08:16:27;;;;;;;6.35;2.35;;;;;;;25.66;46.13;98985.03;5089501;28;20083;-74
2023/06/23 08:18:55;;;;;;;3.40;2.28;;;;;;;25.54;45.95;98983.84;5088599;28;20032;-74
2023/06/23 08:21:23;;;;;;;5.57;2.50;;;;;;;25.56;45.79;98990.75;5089351;28;20032;-74
2023/06/23 08:23:50;;;;;;;6.00;2.40;;;;;;;25.80;45.67;98976.03;5089392;28;20124;-74
2023/06/23 08:26:17;;;;;;;4.30;2.30;;;;;;;25.58;45.75;98990.56;5088268;28;20040;-74
2023/06/23 08:28:44;;;;;;;9.10;2.47;;;;;;;25.74;45.72;98998.50;5089581;28;20181;-74
2023/06/23 08:31:11;;;;;;;4.28;2.50;;;;;;;25.82;44.95;99008.41;5088949;28;20297;-74
2023/06/23 08:33:39;;;;;;;5.90;2.22;;;;;;;25.64;45.40;99007.97;5088040;28;20041;-73
2023/06/23 08:36:07;;;;;;;5.25;2.28;;;;;;;25.78;44.59;99001.69;5089511;28;20036;-74
2023/06/23 08:38:35;;;;;;;8.38;2.33;;;;;;;25.85;44.94;98994.44;5089358;28;20049;-74
2023/06/23 08:41:02;;;;;;;4.80;2.20;;;;;;;25.89;44.71;99001.19;5089022;28;20044;-74
2023/06/23 08:43:31;;;;;;;4.97;2.53;;;;;;;25.98;44.78;99031.81;5087829;28;20048;-74
2023/06/23 08:45:59;;;;;;;4.20;2.33;;;;;;;25.90;44.66;98986.56;5088884;28;20046;-72
2023/06/23 08:48:28;;;;;;;4.13;1.80;;;;;;;25.98;44.28;99023.66;5087787;28;20374;-74
2023/06/23 08:50:56;;;;;;;5.22;1.98;;;;;;;25.96;43.83;99006.69;5087770;28;20064;-73
2023/06/23 08:53:24;;;;;;;3.20;2.13;;;;;;;25.87;43.27;98966.09;5088381;28;20323;-73
2023/06/23 08:55:54;;;;;;;4.57;1.80;;;;;;;25.98;43.58;99001.94;5089018;28;20115;-74
2023/06/23 08:58:22;;;;;;;5.25;2.03;;;;;;;25.96;43.43;99017.53;5088813;28;20036;-73
2023/06/23 09:00:52;;;;;;;3.90;1.90;;;;;;;25.54;42.62;98949.41;5088635;28;20052;-73
2023/06/23 09:03:19;;;;;;;6.97;2.55;;;;;;;25.97;42.14;99028.25;5087775;28;20040;-73
2023/06/23 09:05:46;;;;;;;4.32;2.15;;;;;;;25.97;42.85;98998.38;5087454;28;20047;-73
2023/06/23 09:08:14;;;;;;;4.82;2.30;;;;;;;26.06;42.22;99012.69;5088535;28;20046;-73
2023/06/23 09:10:41;;;;;;;5.50;2.50;;;;;;;25.76;41.95;98979.31;5088242;28;20059;-73
2023/06/23 09:13:35;;;;;;;5.88;2.45;;;;;;;26.07;42.41;98998.06;5087233;28;20040;-73
2023/06/23 09:16:02;;;;;;;6.22;2.17;;;;;;;26.42;41.97;98990.91;5088666;28;20120;-73
2023/06/23 09:18:32;;;;;;;3.97;2.20;;;;;;;26.28;41.40;99019.81;5088283;28;20299;-73
2023/06/23 09:21:02;;;;;;;6.85;1.77;;;;;;;26.31;41.49;99013.16;5086839;28;20256;-73
2023/06/23 09:23:31;;;;;;;3.90;2.00;;;;;;;26.44;42.23;98989.66;5088477;28;20048;-74
2023/06/23 09:25:59;;;;;;;2.95;1.50;;;;;;;26.60;41.73;99020.31;5088119;28;20082;-73
2023/06/23 09:28:28;;;;;;;15.98;2.47;;;;;;;26.49;41.55;99019.81;5086989;28;20051;-73
2023/06/23 09:30:57;;;;;;;3.20;1.80;;;;;;;26.40;41.87;99031.00;5086779;28;20044;-73
2023/06/23 09:33:25;;;;;;;4.93;2.13;;;;;;;26.41;42.37;99009.09;5087957;28;20055;-73
2023/06/23 09:35:57;;;;;;;4.18;2.45;;;;;;;26.48;41.73;99034.44;5086774;28;20045;-73
2023/06/23 09:38:26;;;;;;;5.43;2.10;;;;;;;26.37;42.21;99017.81;5087663;28;20045;-73
2023/06/23 09:41:03;;;;;;;4.43;2.42;;;;;;;25.79;42.48;98940.94;5086690;28;20042;-73
2023/06/23 09:43:38;;;;;;;3.15;1.77;;;;;;;26.39;42.27;99013.88;5088076;28;20090;-73
2023/06/23 09:46:07;;;;;;;3.10;1.75;;;;;;;26.59;42.36;99013.22;5087439;28;20104;-73
2023/06/23 09:48:34;;;;;;;5.47;2.08;;;;;;;26.61;42.29;99017.44;5087841;28;20051;-73
2023/06/23 09:51:01;;;;;;;2.63;1.63;;;;;;;26.64;41.87;99027.94;5087385;28;20047;-73
2023/06/23 09:53:32;;;;;;;2.97;1.77;;;;;;;26.39;42.00;99030.16;5086439;28;20044;-73
2023/06/23 09:55:59;;;;;;;3.42;1.90;;;;;;;26.39;42.31;99035.59;5087882;28;20059;-73
2023/06/23 09:58:32;;;;;;;2.80;1.52;;;;;;;26.42;42.65;99027.06;5086292;28;20083;-74
2023/06/23 10:01:04;;;;;;;10.47;1.83;;;;;;;26.65;42.55;99026.06;5086510;28;20044;-74
2023/06/23 10:03:32;;;;;;;3.47;1.70;;;;;;;26.73;42.64;99017.75;5086361;28;20040;-73
2023/06/23 10:05:59;;;;;;;2.65;1.63;;;;;;;27.01;42.47;99021.31;5087380;28;20281;-74
2023/06/23 10:08:27;;;;;;;4.45;1.73;;;;;;;27.06;41.64;99067.81;5087665;28;20060;-74
2023/06/23 10:10:54;;;;;;;2.97;1.60;;;;;;;27.12;41.32;99019.94;5086153;28;20083;-74
2023/06/23 10:13:22;;;;;;;4.18;1.67;;;;;;;26.82;41.80;98986.66;5087002;28;20048;-73
2023/06/23 10:15:51;;;;;;;3.00;1.70;;;;;;;26.73;41.56;99058.53;5086102;28;20032;-74
2023/06/23 10:18:20;;;;;;;4.85;1.70;;;;;;;26.39;42.04;98955.97;5086228;28;20051;-73
2023/06/23 10:20:48;;;;;;;2.50;1.38;;;;;;;26.70;42.22;99020.88;5086694;28;20050;-73
2023/06/23 10:23:15;;;;;;;2.92;1.70;;;;;;;27.04;42.10;99028.25;5086714;28;20036;-73
2023/06/23 10:25:45;;;;;;;4.57;1.60;;;;;;;27.11;41.68;99024.53;5087347;28;20040;-73
2023/06/23 10:37:06;;;;;;;5.75;1.95;;;;;;;26.73;41.56;99036.78;5124338;27;20698;-73
2023/06/23 10:39:36;;;;;;;3.80;1.92;;;;;;;26.76;41.64;99041.84;5123532;28;20073;-73
2023/06/23 10:42:04;;;;;;;2.70;1.42;;;;;;;26.92;41.98;99044.28;5123836;28;20036;-74
2023/06/23 10:44:31;;;;;;;6.88;1.90;;;;;;;27.09;41.24;99047.53;5123219;28;20223;-73
2023/06/23 10:46:59;;;;;;;3.25;1.67;;;;;;;27.10;41.77;99039.19;5123634;28;20043;-73
2023/06/23 10:49:26;;;;;;;2.50;1.60;;;;;;;27.26;41.36;99034.50;5123679;28;20046;-73
2023/06/23 10:51:53;;;;;;;2.10;1.40;;;;;;;27.15;40.30;99057.63;5123295;28;20312;-73
2023/06/23 10:54:28;;;;;;;2.85;1.42;;;;;;;26.74;40.87;99008.56;5122250;28;20048;-74
2023/06/23 10:56:55;;;;;;;3.70;1.40;;;;;;;27.06;41.05;99047.94;5123223;28;20115;-74
2023/06/23 10:59:23;;;;;;;4.47;1.70;;;;;;;27.15;41.31;99039.41;5122092;28;20304;-73
2023/06/23 11:02:18;;;;;;;2.65;1.30;;;;;;;27.13;40.26;99057.81;5123451;28;20050;-73
2023/06/23 11:04:56;;;;;;;2.67;1.55;;;;;;;27.12;40.69;99034.38;5121962;28;20089;-73
2023/06/23 11:07:24;;;;;;;2.17;1.38;;;;;;;27.26;41.33;99039.94;5122737;28;20039;-73
2023/06/23 11:10:05;;;;;;;5.03;1.42;;;;;;;27.22;41.08;99038.63;5122811;28;20110;-73
2023/06/23 11:12:34;;;;;;;2.53;1.30;;;;;;;27.19;41.17;99045.31;5123347;28;20040;-73
2023/06/23 11:15:03;;;;;;;3.05;1.08;;;;;;;27.15;40.78;99036.69;5121810;28;20040;-72
2023/06/23 11:17:30;;;;;;;5.15;1.60;;;;;;;27.11;41.35;99018.25;5122708;28;20177;-74
2023/06/23 11:19:58;;;;;;;2.70;1.50;;;;;;;27.20;41.66;99033.38;5122665;28;20284;-73
2023/06/23 11:22:29;;;;;;;3.33;1.70;;;;;;;27.23;41.13;99018.56;5121703;28;20242;-73
2023/06/23 11:25:05;;;;;;;3.47;1.30;;;;;;;27.18;41.52;99017.25;5123046;28;20101;-73
2023/06/23 11:27:31;;;;;;;2.00;1.23;;;;;;;27.11;41.40;99034.56;5122404;28;20043;-73
2023/06/23 11:30:15;;;;;;;2.72;1.52;;;;;;;26.92;40.97;99013.53;5121603;28;20085;-72
2023/06/23 11:32:42;;;;;;;;;;;;;;;27.01;41.05;99034.94;5122970;28;20056;-73
2023/06/23 11:35:09;;;;;;;3.28;1.23;;;;;;;27.01;41.06;99034.94;5122433;28;19965;-73
2023/06/23 11:37:39;;;;;;;4.35;1.35;;;;;;;26.80;41.00;99059.44;5122558;28;20334;-73
2023/06/23 11:40:09;;;;;;;3.50;1.55;;;;;;;26.21;40.83;98997.19;5122539;28;20093;-72
2023/06/23 11:42:37;;;;;;;4.03;2.28;;;;;;;26.44;41.09;99016.84;5122312;28;20108;-73
2023/06/23 11:45:04;;;;;;;5.97;1.20;;;;;;;26.48;40.93;99050.75;5122254;28;20089;-73
2023/06/23 11:47:31;;;;;;;6.63;1.27;;;;;;;26.38;41.19;99044.78;5113806;28;20140;-73